Time;durP1;ratioP1;P1;durP2;ratioP2;P2;SDS_P1;SDS_P2;PMS_P1;PMS_P2;Temp;Humidity;BMP_temperature;BMP_pressure;BME280_temperature;BME280_humidity;BME280_pressure;Samples;Min_cycle;Max_cycle;Signal;HPM_P1;HPM_P2
2022/06/02 00:00:16;;;;;;;2.58;2.30;;;22.80;53.60;;;;;;5113625;28;20410;-65
2022/06/02 00:03:09;;;;;;;2.40;2.20;;;22.80;53.70;;;;;;5113865;28;20899;-65
2022/06/02 00:06:04;;;;;;;2.28;2.00;;;22.80;53.70;;;;;;5113909;28;20441;-65
2022/06/02 00:08:33;;;;;;;2.20;1.98;;;22.70;53.60;;;;;;5113308;28;20815;-65
2022/06/02 00:11:22;;;;;;;2.40;2.20;;;22.70;53.70;;;;;;5113795;28;20869;-65
2022/06/02 00:14:17;;;;;;;2.88;2.10;;;22.70;53.60;;;;;;5113766;28;20952;-65
2022/06/02 00:17:01;;;;;;;2.47;2.20;;;22.70;53.60;;;;;;5112348;28;20387;-65
2022/06/02 00:19:48;;;;;;;3.10;2.10;;;22.70;53.60;;;;;;5113601;28;20384;-65
2022/06/02 00:22:49;;;;;;;2.20;2.00;;;22.70;53.60;;;;;;5112949;28;20974;-65
2022/06/02 00:25:29;;;;;;;2.42;1.98;;;22.70;53.60;;;;;;5075541;28;20396;-65
2022/06/02 00:28:12;;;;;;;2.92;2.28;;;22.70;53.60;;;;;;5112042;28;20467;-65
2022/06/02 00:30:48;;;;;;;2.20;1.95;;;22.70;53.60;;;;;;5113391;28;20861;-65
2022/06/02 00:33:21;;;;;;;2.20;2.00;;;22.70;53.60;;;;;;5113244;28;20402;-65
2022/06/02 00:35:58;;;;;;;2.35;1.88;;;22.70;53.70;;;;;;5113227;28;20395;-65
2022/06/02 00:38:28;;;;;;;2.28;2.03;;;22.70;53.70;;;;;;5112695;28;20391;-65
2022/06/02 00:41:04;;;;;;;2.30;2.10;;;22.70;53.70;;;;;;5111744;28;20791;-65
2022/06/02 00:43:30;;;;;;;2.58;1.80;;;22.70;53.70;;;;;;5112851;27;20380;-65
2022/06/02 00:46:23;;;;;;;2.30;1.90;;;22.70;53.70;;;;;;5113044;28;20434;-66
2022/06/02 00:49:10;;;;;;;2.40;2.08;;;22.70;53.70;;;;;;5092651;28;20807;-65
2022/06/02 00:51:41;;;;;;;2.33;1.95;;;22.60;53.60;;;;;;5112217;28;20383;-65
2022/06/02 00:57:41;;;;;;;2.10;1.90;;;22.70;53.60;;;;;;5112614;28;20391;-65
2022/06/02 01:00:24;;;;;;;2.30;2.00;;;22.60;53.60;;;;;;5111415;28;20475;-64
2022/06/02 01:02:55;;;;;;;2.10;1.90;;;22.60;53.60;;;;;;5112532;28;20877;-65
2022/06/02 01:05:39;;;;;;;2.35;1.90;;;22.60;53.50;;;;;;5112732;28;20384;-65
2022/06/02 01:08:13;;;;;;;2.20;2.00;;;22.60;53.70;;;;;;5112567;28;20880;-65
2022/06/02 01:11:05;;;;;;;2.47;2.28;;;22.60;53.60;;;;;;5111967;28;20380;-65
2022/06/02 01:13:43;;;;;;;2.55;2.10;;;22.60;53.60;;;;;;5112541;28;20787;-65
2022/06/02 01:16:47;;;;;;;2.17;1.90;;;22.60;53.60;;;;;;5112376;28;20864;-65
2022/06/02 01:19:46;;;;;;;2.47;1.92;;;22.60;53.60;;;;;;5112382;28;20457;-65
2022/06/02 01:22:25;;;;;;;2.00;1.80;;;22.60;53.60;;;;;;5112309;28;20798;-65
2022/06/02 01:25:22;;;;;;;2.43;1.80;;;22.60;53.60;;;;;;5112413;28;20508;-65
2022/06/02 01:28:10;;;;;;;2.80;1.83;;;22.60;53.60;;;;;;5112251;28;20428;-65
2022/06/02 01:30:52;;;;;;;1.95;1.80;;;22.60;53.60;;;;;;5111804;28;20394;-65
2022/06/02 01:33:39;;;;;;;2.28;2.08;;;22.60;53.60;;;;;;5112131;28;20371;-65
2022/06/02 01:36:39;;;;;;;2.15;1.90;;;22.60;53.70;;;;;;5112117;28;20476;-65
2022/06/02 01:39:07;;;;;;;2.20;2.00;;;22.60;53.70;;;;;;5112026;28;20416;-65
2022/06/02 01:41:45;;;;;;;2.00;1.80;;;22.60;53.60;;;;;;5110733;28;20876;-65
2022/06/02 01:44:19;;;;;;;1.90;1.70;;;22.60;53.60;;;;;;5112044;28;20744;-65
2022/06/02 01:47:27;;;;;;;2.05;1.77;;;22.60;53.70;;;;;;5112100;28;20369;-65
2022/06/02 01:50:22;;;;;;;2.30;2.10;;;22.60;53.60;;;;;;5104256;28;20396;-65
2022/06/02 01:53:22;;;;;;;1.95;1.83;;;22.60;53.70;;;;;;5111798;28;20400;-65
2022/06/02 01:56:21;;;;;;;2.33;2.13;;;22.50;53.50;;;;;;5109578;28;20388;-65
2022/06/02 01:59:06;;;;;;;2.65;1.85;;;22.50;53.70;;;;;;5111941;28;20384;-65
2022/06/02 02:01:55;;;;;;;2.20;2.00;;;22.50;53.60;;;;;;5111876;28;20463;-65
2022/06/02 02:04:49;;;;;;;2.65;2.17;;;22.50;53.60;;;;;;5111378;28;20403;-65
2022/06/02 02:07:23;;;;;;;2.37;2.17;;;22.50;53.60;;;;;;5092905;28;20489;-65
2022/06/02 02:10:08;;;;;;;2.45;2.25;;;22.50;53.60;;;;;;5111550;28;20377;-65
2022/06/02 02:12:56;;;;;;;2.80;2.33;;;22.50;53.50;;;;;;5111248;28;20384;-65
2022/06/02 02:15:45;;;;;;;2.45;2.25;;;22.50;53.50;;;;;;5111638;28;20384;-65
2022/06/02 02:18:25;;;;;;;2.40;2.20;;;22.50;53.60;;;;;;5111564;28;20433;-65
2022/06/02 02:21:15;;;;;;;2.30;2.10;;;22.50;53.50;;;;;;5111728;28;20388;-65
2022/06/02 02:24:01;;;;;;;2.30;2.10;;;22.50;53.60;;;;;;5115261;28;20384;-65
2022/06/02 02:26:46;;;;;;;2.95;2.10;;;22.50;53.60;;;;;;5114891;28;20416;-65
2022/06/02 02:29:27;;;;;;;2.35;2.10;;;22.50;53.50;;;;;;5115682;28;20733;-65
2022/06/02 02:32:23;;;;;;;2.50;1.92;;;22.50;53.50;;;;;;5115669;28;20876;-65
2022/06/02 02:35:38;;;;;;;2.35;2.15;;;22.50;54.00;;;;;;5115688;28;20379;-65
2022/06/02 02:38:48;;;;;;;2.40;2.05;;;22.50;53.40;;;;;;5077910;28;20442;-65
2022/06/02 02:41:27;;;;;;;2.17;1.95;;;22.40;53.30;;;;;;5098512;28;20748;-65
2022/06/02 02:43:53;;;;;;;2.28;2.10;;;22.40;53.40;;;;;;5115466;28;20416;-65
2022/06/02 02:46:37;;;;;;;2.40;2.20;;;22.50;53.40;;;;;;5114903;28;20889;-65
2022/06/02 02:49:18;;;;;;;2.20;2.00;;;22.50;53.40;;;;;;5115321;28;20419;-65
2022/06/02 02:51:47;;;;;;;2.05;1.85;;;22.40;53.40;;;;;;5115110;28;20380;-65
2022/06/02 02:54:47;;;;;;;2.08;1.88;;;22.40;53.20;;;;;;5114966;28;20404;-65
2022/06/02 02:57:44;;;;;;;2.33;2.08;;;22.40;53.40;;;;;;5105885;28;20817;-65
2022/06/02 03:00:18;;;;;;;2.10;1.90;;;22.40;53.40;;;;;;5115131;28;20376;-65
2022/06/02 03:02:56;;;;;;;1.90;1.70;;;22.40;53.40;;;;;;5114479;28;20424;-65
2022/06/02 03:05:48;;;;;;;2.00;1.80;;;22.40;53.40;;;;;;5114980;28;20381;-65
2022/06/02 03:08:31;;;;;;;3.08;1.95;;;22.40;53.40;;;;;;5094810;28;20473;-65
2022/06/02 03:11:06;;;;;;;2.42;1.77;;;22.40;53.60;;;;;;5114871;28;20412;-65
2022/06/02 03:14:04;;;;;;;4.78;3.30;;;22.40;53.90;;;;;;5114891;28;20469;-64
2022/06/02 03:16:33;;;;;;;2.92;2.50;;;22.40;54.40;;;;;;5099561;28;20467;-65
2022/06/02 03:19:17;;;;;;;9.70;3.50;;;22.40;54.50;;;;;;5113508;28;20384;-65
2022/06/02 03:22:02;;;;;;;6.60;3.00;;;22.50;56.80;;;;;;5114298;28;20385;-65
2022/06/02 03:25:09;;;;;;;4.53;2.78;;;22.60;56.50;;;;;;5113926;28;20459;-65
2022/06/02 03:27:58;;;;;;;5.57;2.45;;;22.60;56.60;;;;;;5097916;28;20473;-65
2022/06/02 03:30:27;;;;;;;3.10;2.40;;;22.70;56.40;;;;;;5110692;28;20910;-65
2022/06/02 03:33:28;;;;;;;4.95;2.38;;;22.70;56.30;;;;;;5101005;28;20403;-65
2022/06/02 03:36:08;;;;;;;3.58;2.50;;;22.70;56.30;;;;;;5038008;28;20393;-65
2022/06/02 03:38:52;;;;;;;4.70;2.20;;;22.70;56.20;;;;;;5096241;28;20900;-65
2022/06/02 03:41:24;;;;;;;4.30;2.20;;;22.80;56.20;;;;;;5103957;28;20382;-65
2022/06/02 03:44:11;;;;;;;4.10;2.00;;;22.80;56.10;;;;;;5093901;28;20374;-65
2022/06/02 03:47:01;;;;;;;6.75;2.50;;;22.80;56.00;;;;;;5093233;28;20431;-65
2022/06/02 03:49:41;;;;;;;4.85;2.17;;;22.80;56.30;;;;;;5092507;28;20493;-65
2022/06/02 03:52:13;;;;;;;3.38;2.30;;;22.80;56.30;;;;;;5093538;28;20390;-65
2022/06/02 03:55:07;;;;;;;3.03;2.20;;;22.80;56.10;;;;;;5093738;28;20408;-65
2022/06/02 03:57:52;;;;;;;3.58;2.25;;;22.80;56.20;;;;;;5090059;28;20427;-64
2022/06/02 04:00:33;;;;;;;2.80;2.28;;;22.80;55.70;;;;;;5091177;28;20469;-65
2022/06/02 04:03:06;;;;;;;7.28;2.38;;;22.80;56.10;;;;;;5093537;28;20392;-64
2022/06/02 04:05:38;;;;;;;6.70;2.50;;;22.70;56.20;;;;;;5093042;28;20382;-65
2022/06/02 04:08:40;;;;;;;4.55;2.20;;;22.70;55.90;;;;;;5093153;28;20951;-64
2022/06/02 04:11:23;;;;;;;8.20;2.40;;;22.70;56.00;;;;;;5093050;28;20382;-65
2022/06/02 04:14:11;;;;;;;6.15;2.15;;;22.70;56.40;;;;;;5092896;28;20456;-65
2022/06/02 04:17:02;;;;;;;5.95;2.08;;;22.70;55.80;;;;;;5092744;28;20387;-65
2022/06/02 04:22:32;;;;;;;3.45;2.17;;;22.60;55.80;;;;;;5093008;28;20377;-64
2022/06/02 04:25:16;;;;;;;3.63;2.25;;;22.60;56.10;;;;;;5093034;28;20402;-65
2022/06/02 04:27:55;;;;;;;4.35;2.10;;;22.70;56.40;;;;;;5091598;28;20414;-65
2022/06/02 04:30:46;;;;;;;4.82;2.13;;;22.60;55.60;;;;;;5092851;28;20453;-65
2022/06/02 04:33:40;;;;;;;4.15;2.42;;;22.60;55.40;;;;;;5087039;28;20409;-64
2022/06/02 04:36:21;;;;;;;5.32;2.08;;;22.60;56.00;;;;;;5092759;28;20381;-65
2022/06/02 04:39:04;;;;;;;9.27;2.60;;;22.60;55.10;;;;;;5092510;28;20402;-64
2022/06/02 04:42:20;;;;;;;5.50;2.10;;;22.60;56.40;;;;;;5092787;28;20712;-64
2022/06/02 04:45:05;;;;;;;3.70;2.10;;;22.60;55.10;;;;;;5068922;28;20492;-64
2022/06/02 04:47:45;;;;;;;4.97;2.33;;;22.60;55.60;;;;;;5091948;28;20463;-65
2022/06/02 04:50:42;;;;;;;11.63;2.70;;;22.60;55.60;;;;;;5091309;28;20397;-64
2022/06/02 04:53:21;;;;;;;6.20;2.77;;;22.60;55.40;;;;;;5090574;28;20472;-64
2022/06/02 04:56:12;;;;;;;5.30;2.30;;;22.50;55.10;;;;;;5092442;28;20457;-64
2022/06/02 04:58:46;;;;;;;4.07;2.30;;;22.60;55.30;;;;;;5090264;28;20409;-65
2022/06/02 05:01:38;;;;;;;7.93;2.50;;;22.50;55.30;;;;;;5092376;28;20374;-64
2022/06/02 05:04:38;;;;;;;4.50;2.38;;;22.50;55.30;;;;;;5092303;28;20719;-64
2022/06/02 05:07:28;;;;;;;4.38;2.25;;;22.50;55.30;;;;;;5090867;28;20496;-65
2022/06/02 05:10:19;;;;;;;4.88;2.42;;;22.50;55.30;;;;;;5092134;28;20398;-64
2022/06/02 05:12:51;;;;;;;3.58;2.47;;;22.50;55.20;;;;;;5091785;28;20382;-65
2022/06/02 05:15:51;;;;;;;6.72;2.65;;;22.50;55.50;;;;;;5089943;28;20410;-65
2022/06/02 05:18:43;;;;;;;7.57;5.00;;;22.50;56.50;;;;;;5092250;28;20405;-65
2022/06/02 05:21:34;;;;;;;6.82;4.03;;;22.60;57.60;;;;;;5092260;28;20496;-65
2022/06/02 05:24:29;;;;;;;5.47;3.13;;;22.60;58.00;;;;;;5092214;28;20461;-65
2022/06/02 05:27:25;;;;;;;5.73;3.17;;;22.70;57.90;;;;;;5092060;28;20374;-65
2022/06/02 05:30:23;;;;;;;5.38;3.10;;;22.70;57.70;;;;;;5092630;28;20386;-64
2022/06/02 05:33:10;;;;;;;6.45;3.20;;;22.70;57.70;;;;;;5057196;28;20810;-64
2022/06/02 05:35:50;;;;;;;3.85;2.70;;;22.80;57.70;;;;;;5092105;28;20406;-65
2022/06/02 05:38:16;;;;;;;4.85;2.85;;;22.80;57.60;;;;;;5091832;28;20758;-65
2022/06/02 05:40:57;;;;;;;4.63;2.67;;;22.80;57.60;;;;;;5091289;28;20390;-65
2022/06/02 05:43:48;;;;;;;4.67;2.97;;;22.80;57.60;;;;;;5090512;28;20486;-66
2022/06/02 05:46:25;;;;;;;4.43;2.63;;;22.80;57.70;;;;;;5090485;28;20390;-65
2022/06/02 05:49:35;;;;;;;5.50;2.80;;;22.80;57.50;;;;;;5092001;28;21575;-64
2022/06/02 05:52:19;;;;;;;4.87;2.63;;;22.80;57.80;;;;;;5043604;28;20393;-65
2022/06/02 05:54:55;;;;;;;3.95;2.63;;;22.80;57.70;;;;;;5086701;28;20966;-64
2022/06/02 05:57:46;;;;;;;3.85;2.60;;;22.70;57.70;;;;;;5081291;28;20423;-64
2022/06/02 06:00:35;;;;;;;4.27;2.70;;;22.70;57.50;;;;;;5085367;28;20754;-64
2022/06/02 06:03:35;;;;;;;3.42;2.80;;;22.70;57.40;;;;;;5091114;28;20398;-65
2022/06/02 06:06:18;;;;;;;3.30;2.30;;;22.70;57.00;;;;;;5091271;28;20379;-65
2022/06/02 06:09:16;;;;;;;4.00;2.35;;;22.70;57.10;;;;;;5090266;28;20410;-65
2022/06/02 06:12:11;;;;;;;4.05;2.17;;;22.70;56.80;;;;;;5091031;28;20376;-65
2022/06/02 06:14:45;;;;;;;3.47;2.25;;;22.70;56.80;;;;;;5089482;28;20770;-65
2022/06/02 06:17:34;;;;;;;3.30;2.33;;;22.70;56.40;;;;;;5089833;28;20898;-65
2022/06/02 06:20:07;;;;;;;4.00;2.40;;;22.70;56.80;;;;;;5091240;28;20746;-65
2022/06/02 06:23:13;;;;;;;2.72;2.42;;;22.70;56.30;;;;;;5089395;28;20440;-65
2022/06/02 06:25:53;;;;;;;3.42;2.22;;;22.70;56.40;;;;;;5048592;28;20759;-65
2022/06/02 06:28:22;;;;;;;4.47;2.60;;;22.70;56.40;;;;;;5031596;28;20619;-65
2022/06/02 06:30:58;;;;;;;5.18;2.72;;;22.70;56.70;;;;;;5073451;28;20393;-65
2022/06/02 06:33:33;;;;;;;4.23;2.57;;;22.70;56.60;;;;;;5091062;28;20374;-65
2022/06/02 06:36:23;;;;;;;4.68;2.60;;;22.70;56.60;;;;;;5089635;28;20394;-65
2022/06/02 06:39:26;;;;;;;4.77;2.70;;;22.70;56.40;;;;;;5089109;28;20977;-65
2022/06/02 06:41:51;;;;;;;4.72;2.90;;;22.70;56.30;;;;;;5091180;28;20378;-64
2022/06/02 06:44:39;;;;;;;5.00;2.83;;;22.70;56.30;;;;;;5091109;28;20385;-64
2022/06/02 06:47:47;;;;;;;3.55;2.60;;;22.70;56.40;;;;;;5090580;28;20398;-65
2022/06/02 06:50:23;;;;;;;4.85;2.60;;;22.80;56.50;;;;;;5069269;28;20941;-64
2022/06/02 06:53:14;;;;;;;5.60;2.67;;;22.80;56.50;;;;;;5089584;28;20402;-64
2022/06/02 06:56:21;;;;;;;4.90;2.70;;;22.80;56.20;;;;;;5090852;28;20381;-64
2022/06/02 06:59:08;;;;;;;5.13;2.60;;;22.80;57.10;;;;;;5090124;28;20379;-65
2022/06/02 07:01:34;;;;;;;4.07;2.30;;;22.80;56.50;;;;;;5090775;28;20742;-64
2022/06/02 07:04:31;;;;;;;3.57;2.50;;;22.80;56.40;;;;;;5090724;28;20382;-65
2022/06/02 07:07:02;;;;;;;6.03;2.50;;;22.80;56.30;;;;;;5090422;28;20381;-66
2022/06/02 07:09:48;;;;;;;3.95;2.22;;;22.70;55.90;;;;;;5091991;28;20389;-65
2022/06/02 07:15:18;;;;;;;3.03;2.22;;;22.70;55.30;;;;;;5094499;28;20507;-64
2022/06/02 07:17:56;;;;;;;4.00;2.00;;;22.70;55.40;;;;;;5094256;28;20492;-65
2022/06/02 07:20:54;;;;;;;3.85;2.40;;;22.70;55.10;;;;;;5093975;28;20378;-65
2022/06/02 07:23:19;;;;;;;2.78;2.00;;;22.80;55.20;;;;;;5072544;28;20501;-65
2022/06/02 07:25:53;;;;;;;3.67;1.90;;;22.70;55.40;;;;;;5094135;28;20926;-64
2022/06/02 07:28:27;;;;;;;2.33;1.73;;;22.80;55.50;;;;;;5093757;28;20402;-65
2022/06/02 07:31:13;;;;;;;3.10;2.00;;;22.70;55.10;;;;;;5092040;28;21247;-65
2022/06/02 07:33:53;;;;;;;3.20;2.00;;;22.70;55.00;;;;;;5093966;28;20425;-65
2022/06/02 07:36:40;;;;;;;2.92;1.83;;;22.70;55.20;;;;;;5093783;28;20390;-65
2022/06/02 07:39:15;;;;;;;3.67;2.03;;;22.70;55.10;;;;;;5093692;28;20400;-64
2022/06/02 07:41:49;;;;;;;2.40;1.70;;;22.70;55.00;;;;;;5094023;28;20419;-65
2022/06/02 07:44:30;;;;;;;2.20;1.90;;;22.80;55.40;;;;;;5093477;28;20473;-66
2022/06/02 07:47:07;;;;;;;2.45;2.00;;;22.80;55.10;;;;;;5092972;28;20389;-65
2022/06/02 07:49:40;;;;;;;2.88;1.98;;;22.70;55.10;;;;;;5093645;28;20397;-65
2022/06/02 07:52:40;;;;;;;2.40;1.80;;;22.80;55.30;;;;;;5093324;28;20386;-65
2022/06/02 07:55:21;;;;;;;2.28;1.83;;;22.80;55.10;;;;;;5093399;28;20408;-65
2022/06/02 07:58:06;;;;;;;2.33;1.80;;;22.70;55.30;;;;;;5093400;28;20535;-65
2022/06/02 08:00:40;;;;;;;3.13;2.00;;;22.80;55.10;;;;;;5093479;28;20774;-65
2022/06/02 08:03:24;;;;;;;2.80;2.00;;;22.80;55.20;;;;;;5093256;28;20469;-65
2022/06/02 08:06:18;;;;;;;2.72;1.70;;;22.80;55.20;;;;;;5093333;28;20381;-65
2022/06/02 08:08:55;;;;;;;2.53;1.80;;;22.80;55.30;;;;;;5092672;28;20406;-65
2022/06/02 08:11:33;;;;;;;2.80;1.80;;;22.80;55.30;;;;;;5093142;28;20435;-65
2022/06/02 08:14:30;;;;;;;2.67;1.97;;;22.80;55.30;;;;;;5093044;28;20443;-65
2022/06/02 08:16:59;;;;;;;3.38;2.00;;;22.80;55.20;;;;;;5092376;28;20408;-65
2022/06/02 08:19:59;;;;;;;2.67;1.90;;;22.80;55.20;;;;;;5093067;28;20404;-65
2022/06/02 08:23:11;;;;;;;2.20;1.95;;;22.80;55.20;;;;;;5093177;28;20397;-65
2022/06/02 08:25:50;;;;;;;2.30;1.98;;;22.80;55.20;;;;;;5092323;28;20386;-66
2022/06/02 08:28:34;;;;;;;2.40;2.00;;;22.80;55.20;;;;;;5088667;28;20418;-65
2022/06/02 08:31:33;;;;;;;2.00;1.80;;;22.80;55.20;;;;;;5090909;28;20390;-65
2022/06/02 08:34:04;;;;;;;1.95;1.70;;;22.80;55.20;;;;;;5092765;28;20401;-65
2022/06/02 08:36:42;;;;;;;2.17;1.70;;;22.80;54.90;;;;;;5092702;28;20448;-65
2022/06/02 08:39:26;;;;;;;2.20;1.70;;;22.80;55.10;;;;;;5092601;28;20386;-65
2022/06/02 08:42:25;;;;;;;2.10;1.67;;;22.80;54.80;;;;;;5092435;28;20424;-65
2022/06/02 08:45:06;;;;;;;2.28;1.80;;;22.80;54.50;;;;;;5092006;28;20761;-65
2022/06/02 08:47:56;;;;;;;2.00;1.80;;;22.90;54.50;;;;;;5091289;28;20418;-65
2022/06/02 08:50:49;;;;;;;1.70;1.60;;;22.90;54.50;;;;;;5092536;28;20428;-64
2022/06/02 08:53:39;;;;;;;1.95;1.63;;;22.90;54.50;;;;;;5090806;28;20406;-65
2022/06/02 08:56:33;;;;;;;1.88;1.77;;;22.90;54.50;;;;;;5092467;28;20386;-66
2022/06/02 08:59:57;;;;;;;2.10;1.90;;;22.90;54.40;;;;;;5089484;28;20397;-65
2022/06/02 09:02:53;;;;;;;1.98;1.77;;;22.90;54.40;;;;;;4996849;28;20403;-65
2022/06/02 09:05:56;;;;;;;2.10;1.80;;;22.90;54.50;;;;;;5070618;28;20395;-65
2022/06/02 09:08:59;;;;;;;1.70;1.60;;;22.90;54.40;;;;;;5071717;28;20416;-65
2022/06/02 09:11:41;;;;;;;2.00;1.80;;;22.90;54.30;;;;;;5071786;28;20387;-65
2022/06/02 09:14:44;;;;;;;2.17;1.75;;;22.90;54.30;;;;;;5071497;28;20375;-65
2022/06/02 09:17:35;;;;;;;2.63;1.80;;;22.90;54.50;;;;;;5068364;28;20889;-65
2022/06/02 09:20:19;;;;;;;6.80;4.63;;;22.90;54.90;;;;;;5090503;28;20933;-65
2022/06/02 09:22:48;;;;;;;4.68;3.90;;;23.00;56.60;;;;;;5087783;28;20465;-66
2022/06/02 09:25:31;;;;;;;3.60;2.80;;;23.00;56.40;;;;;;5090408;28;20390;-66
2022/06/02 09:28:19;;;;;;;3.35;2.78;;;23.00;56.40;;;;;;5089600;28;20410;-65
2022/06/02 09:31:15;;;;;;;4.30;2.63;;;23.00;55.70;;;;;;5086040;28;20393;-65
2022/06/02 09:34:25;;;;;;;4.93;2.70;;;23.10;56.40;;;;;;5088527;28;20465;-65
2022/06/02 09:37:01;;;;;;;2.88;2.45;;;23.10;56.30;;;;;;5088001;28;20386;-65
2022/06/02 09:39:32;;;;;;;2.90;2.20;;;23.10;56.10;;;;;;5088320;28;20382;-65
2022/06/02 09:42:26;;;;;;;3.42;2.30;;;23.10;56.10;;;;;;5091125;28;20444;-65
2022/06/02 09:45:06;;;;;;;2.60;2.20;;;23.10;55.80;;;;;;5091071;28;20378;-65
2022/06/02 09:47:54;;;;;;;2.45;2.08;;;23.10;55.40;;;;;;5090204;28;20425;-65
2022/06/02 09:50:35;;;;;;;2.30;2.00;;;23.10;55.30;;;;;;5091277;28;20382;-65
2022/06/02 09:53:25;;;;;;;2.53;1.90;;;23.10;55.20;;;;;;5089312;28;20471;-65
2022/06/02 09:56:15;;;;;;;3.00;2.00;;;23.10;55.00;;;;;;5091791;28;20908;-64
2022/06/02 09:58:53;;;;;;;2.10;1.90;;;23.10;55.00;;;;;;5091080;28;20374;-65
2022/06/02 10:01:46;;;;;;;2.28;1.98;;;23.10;54.80;;;;;;5090029;28;20389;-65
2022/06/02 10:04:30;;;;;;;2.20;2.00;;;23.10;54.70;;;;;;5091237;28;20386;-65
2022/06/02 10:07:20;;;;;;;2.20;2.00;;;23.10;54.70;;;;;;5090636;28;20417;-65
2022/06/02 10:10:09;;;;;;;2.05;1.85;;;23.10;54.70;;;;;;5091333;28;20947;-65
2022/06/02 10:12:58;;;;;;;2.30;1.98;;;23.10;54.60;;;;;;5091326;28;20417;-65
2022/06/02 10:15:42;;;;;;;2.17;1.98;;;23.10;54.60;;;;;;5091115;28;20390;-65
2022/06/02 10:18:32;;;;;;;2.50;2.30;;;23.10;54.50;;;;;;5090969;28;20393;-65
2022/06/02 10:21:16;;;;;;;2.15;1.90;;;23.10;54.40;;;;;;5090644;28;20422;-65
2022/06/02 10:24:17;;;;;;;2.35;1.80;;;23.10;54.30;;;;;;5091217;28;20435;-65
2022/06/02 10:26:48;;;;;;;2.92;1.90;;;23.10;54.30;;;;;;5087023;28;20410;-65
2022/06/02 10:29:43;;;;;;;2.00;1.80;;;23.10;54.30;;;;;;5091013;28;20431;-65
2022/06/02 10:32:20;;;;;;;2.05;1.85;;;23.10;54.40;;;;;;5090970;28;20393;-65
2022/06/02 10:34:56;;;;;;;1.90;1.70;;;23.10;54.40;;;;;;5090581;28;20419;-65
2022/06/02 10:37:48;;;;;;;1.90;1.63;;;23.10;54.20;;;;;;5089809;28;20382;-65
2022/06/02 10:40:37;;;;;;;2.03;1.80;;;23.10;54.30;;;;;;5090939;28;20738;-65
2022/06/02 10:43:02;;;;;;;2.00;1.80;;;23.10;54.30;;;;;;5090949;28;20413;-65
2022/06/02 10:45:58;;;;;;;1.73;1.60;;;23.10;54.20;;;;;;5093553;28;20746;-65
2022/06/02 10:48:42;;;;;;;2.20;1.80;;;23.10;54.20;;;;;;5094642;28;20486;-66
2022/06/02 10:51:45;;;;;;;2.47;1.70;;;23.10;54.10;;;;;;5093171;28;20382;-66
2022/06/02 10:54:43;;;;;;;2.33;1.73;;;23.10;54.10;;;;;;5097714;28;20515;-66
2022/06/02 10:57:29;;;;;;;2.15;1.73;;;23.10;54.40;;;;;;5103864;28;20429;-65
2022/06/02 11:00:30;;;;;;;1.80;1.70;;;23.10;54.20;;;;;;5095437;28;20398;-65
2022/06/02 11:03:41;;;;;;;2.10;1.90;;;23.10;54.10;;;;;;5102944;28;20389;-66
2022/06/02 11:06:41;;;;;;;2.20;2.00;;;23.10;54.40;;;;;;5073066;28;20885;-64
2022/06/02 11:09:25;;;;;;;2.10;1.90;;;23.10;54.40;;;;;;5088762;28;20425;-65
2022/06/02 11:12:03;;;;;;;2.10;1.90;;;23.10;54.10;;;;;;5096267;28;20465;-64
2022/06/02 11:14:32;;;;;;;2.00;1.80;;;23.20;54.30;;;;;;5094827;28;20417;-65
2022/06/02 11:17:18;;;;;;;2.07;1.87;;;23.10;54.20;;;;;;5093709;28;20382;-65
2022/06/02 11:20:19;;;;;;;2.10;1.90;;;23.10;54.10;;;;;;5094131;28;20440;-65
2022/06/02 11:23:10;;;;;;;2.35;2.00;;;23.10;54.90;;;;;;5092806;28;20423;-64
2022/06/02 11:25:56;;;;;;;3.30;2.42;;;23.10;54.30;;;;;;5092784;28;20823;-64
2022/06/02 11:28:40;;;;;;;2.30;1.90;;;23.10;54.30;;;;;;5093783;28;20813;-64
2022/06/02 11:31:21;;;;;;;3.10;2.00;;;23.10;54.20;;;;;;5093146;28;20435;-64
2022/06/02 11:33:56;;;;;;;2.25;1.88;;;23.10;53.90;;;;;;5092456;28;20405;-64
2022/06/02 11:37:00;;;;;;;4.00;2.00;;;23.10;54.00;;;;;;5094061;28;20369;-64
2022/06/02 11:39:48;;;;;;;3.38;1.92;;;23.10;54.20;;;;;;5021708;28;20455;-64
2022/06/02 11:42:32;;;;;;;3.08;2.20;;;23.20;54.30;;;;;;5092412;28;20384;-64
2022/06/02 11:45:16;;;;;;;3.65;2.20;;;23.20;54.30;;;;;;5093189;28;20495;-65
2022/06/02 11:48:06;;;;;;;2.17;1.92;;;23.20;54.10;;;;;;5093376;28;20449;-66
2022/06/02 11:50:46;;;;;;;2.50;2.20;;;23.20;54.00;;;;;;5093611;28;20448;-65
2022/06/02 11:53:27;;;;;;;2.47;2.28;;;23.20;54.00;;;;;;5092817;28;20398;-66
2022/06/02 11:56:05;;;;;;;2.13;1.90;;;23.20;53.90;;;;;;5091229;28;20394;-65
2022/06/02 11:58:57;;;;;;;2.38;1.90;;;23.20;54.00;;;;;;5093574;28;20378;-65
2022/06/02 12:01:35;;;;;;;3.20;2.30;;;23.20;54.00;;;;;;5093444;28;20422;-65
2022/06/02 12:04:06;;;;;;;3.20;2.30;;;23.20;53.80;;;;;;5093326;28;20370;-66
2022/06/02 12:07:04;;;;;;;2.70;2.20;;;23.20;53.80;;;;;;5092154;28;20443;-65
2022/06/02 12:09:53;;;;;;;3.22;2.00;;;23.20;53.80;;;;;;5090150;28;20957;-66
2022/06/02 12:12:41;;;;;;;3.53;1.90;;;23.20;54.00;;;;;;5077608;28;20399;-66
2022/06/02 12:15:26;;;;;;;2.30;2.10;;;23.20;54.10;;;;;;5089403;28;20421;-66
2022/06/02 12:18:07;;;;;;;2.38;2.17;;;23.20;54.10;;;;;;5091112;28;20386;-66
2022/06/02 12:20:47;;;;;;;3.40;2.00;;;23.20;54.10;;;;;;5092285;28;20758;-66
2022/06/02 12:23:31;;;;;;;2.90;2.22;;;23.10;54.10;;;;;;5091876;28;20917;-66
2022/06/02 12:26:33;;;;;;;2.70;2.10;;;23.20;54.20;;;;;;5088675;28;20386;-66
2022/06/02 12:29:26;;;;;;;2.20;2.00;;;23.20;54.00;;;;;;5092196;28;20418;-66
2022/06/02 12:32:28;;;;;;;2.20;2.00;;;23.20;54.00;;;;;;5092075;28;20393;-66
2022/06/02 12:35:16;;;;;;;2.78;2.20;;;23.20;54.10;;;;;;5090958;28;20408;-65
2022/06/02 12:38:08;;;;;;;2.30;2.10;;;23.20;53.90;;;;;;5092729;28;20389;-66
2022/06/02 12:40:43;;;;;;;2.73;1.90;;;23.20;54.10;;;;;;5054954;28;20386;-66
2022/06/02 12:43:44;;;;;;;1.95;1.83;;;23.20;54.00;;;;;;5092076;28;20386;-66
2022/06/02 12:46:29;;;;;;;2.30;2.10;;;23.20;54.00;;;;;;5019971;28;20392;-66
2022/06/02 12:49:35;;;;;;;3.22;1.92;;;23.20;53.90;;;;;;5094079;28;20410;-66
2022/06/02 12:52:16;;;;;;;2.20;2.00;;;23.20;53.80;;;;;;5088945;28;20386;-66
2022/06/02 12:54:50;;;;;;;2.15;1.80;;;23.20;53.80;;;;;;5091146;28;20398;-66
2022/06/02 12:57:52;;;;;;;2.28;2.08;;;23.20;53.80;;;;;;5097088;28;20960;-66
2022/06/02 13:01:03;;;;;;;2.78;1.92;;;23.20;53.80;;;;;;5112584;28;20434;-65
2022/06/02 13:03:40;;;;;;;2.00;1.80;;;23.20;53.70;;;;;;5106472;28;20907;-65
2022/06/02 13:06:48;;;;;;;2.40;1.80;;;23.20;53.70;;;;;;5112090;28;20389;-65
2022/06/02 13:09:39;;;;;;;2.40;2.20;;;23.20;53.80;;;;;;5097122;28;20411;-66
2022/06/02 13:12:32;;;;;;;2.40;2.10;;;23.20;53.70;;;;;;5111145;28;20749;-66
2022/06/02 13:15:25;;;;;;;2.35;2.00;;;23.20;53.70;;;;;;5111881;28;20393;-66
2022/06/02 13:17:54;;;;;;;2.67;2.30;;;23.20;53.70;;;;;;5111117;28;20385;-65
2022/06/02 13:20:27;;;;;;;2.28;2.05;;;23.20;53.70;;;;;;5112514;28;20381;-65
2022/06/02 13:23:14;;;;;;;2.33;1.97;;;23.20;53.80;;;;;;5112026;28;20479;-65
2022/06/02 13:26:17;;;;;;;2.78;2.15;;;23.20;53.80;;;;;;5112437;28;20399;-66
2022/06/02 13:29:03;;;;;;;2.30;1.90;;;23.20;53.80;;;;;;5112261;28;20420;-65
2022/06/02 13:31:50;;;;;;;2.63;2.10;;;23.20;53.70;;;;;;5112317;28;20412;-65
2022/06/02 13:34:40;;;;;;;2.13;1.92;;;23.20;53.80;;;;;;5112202;28;20369;-66
2022/06/02 13:37:21;;;;;;;2.33;2.00;;;23.20;53.70;;;;;;5086040;28;20394;-66
2022/06/02 13:40:20;;;;;;;2.20;1.85;;;23.20;53.80;;;;;;5087719;28;20385;-65
2022/06/02 13:43:27;;;;;;;2.70;2.10;;;23.20;53.70;;;;;;5087909;28;20386;-65
2022/06/02 13:46:25;;;;;;;2.58;2.03;;;23.20;53.80;;;;;;5088185;28;20599;-66
2022/06/02 13:49:11;;;;;;;2.00;1.80;;;23.20;53.80;;;;;;5087022;28;20421;-65
2022/06/02 13:51:54;;;;;;;2.38;2.00;;;23.20;53.70;;;;;;5089161;28;20905;-66
2022/06/02 13:57:55;;;;;;;2.67;2.17;;;23.20;53.80;;;;;;5058534;28;20409;-66
2022/06/02 14:00:52;;;;;;;2.10;1.90;;;23.20;53.70;;;;;;5090354;28;20385;-65
2022/06/02 14:03:52;;;;;;;2.15;1.90;;;23.20;53.80;;;;;;5088913;28;20386;-65
2022/06/02 14:06:20;;;;;;;2.17;1.98;;;23.20;53.80;;;;;;5089154;28;20386;-66
2022/06/02 14:09:35;;;;;;;2.20;2.00;;;23.20;53.80;;;;;;5087459;28;20410;-65
2022/06/02 14:12:30;;;;;;;2.20;2.00;;;23.20;53.80;;;;;;5088268;28;20406;-65
2022/06/02 14:15:33;;;;;;;2.20;2.00;;;23.20;53.70;;;;;;5089798;28;20378;-66
2022/06/02 14:18:27;;;;;;;2.30;2.10;;;23.20;53.70;;;;;;5090957;28;20382;-65
2022/06/02 14:21:03;;;;;;;2.20;2.00;;;23.20;53.70;;;;;;5093783;28;20413;-66
2022/06/02 14:23:41;;;;;;;2.67;2.13;;;23.20;53.80;;;;;;5093088;28;20386;-66
2022/06/02 14:26:28;;;;;;;2.67;2.45;;;23.20;54.00;;;;;;5090232;28;20394;-66
2022/06/02 14:29:02;;;;;;;7.68;4.90;;;23.20;53.90;;;;;;5093691;28;20410;-66
2022/06/02 14:31:36;;;;;;;3.45;2.60;;;23.20;54.50;;;;;;5093189;28;20377;-66
2022/06/02 14:34:23;;;;;;;3.38;2.72;;;23.20;54.10;;;;;;5094539;28;20398;-67
2022/06/02 14:37:19;;;;;;;4.53;2.70;;;23.30;54.00;;;;;;5095064;28;20413;-65
2022/06/02 14:39:57;;;;;;;4.70;2.90;;;23.30;53.70;;;;;;5095131;28;20386;-65